sensor_id;sensor_type;location;lat;lon;timestamp;pressure;altitude;pressure_sealevel;temperature;humidity
43436;BME280;36399;51.444;-2.018;2022-09-03T00:02:18;99860.63;;;15.01;100.00
43436;BME280;36399;51.444;-2.018;2022-09-03T00:04:47;99850.28;;;14.86;100.00
43436;BME280;36399;51.444;-2.018;2022-09-03T00:07:25;99848.75;;;14.70;100.00
43436;BME280;36399;51.444;-2.018;2022-09-03T00:10:01;99841.00;;;14.55;100.00
43436;BME280;36399;51.444;-2.018;2022-09-03T00:12:32;99841.97;;;14.49;100.00
43436;BME280;36399;51.444;-2.018;2022-09-03T00:15:05;99836.88;;;14.32;100.00
43436;BME280;36399;51.444;-2.018;2022-09-03T00:17:41;99832.63;;;14.19;100.00
43436;BME280;36399;51.444;-2.018;2022-09-03T00:20:12;99829.28;;;14.06;100.00
43436;BME280;36399;51.444;-2.018;2022-09-03T00:23:02;99819.63;;;14.01;100.00
43436;BME280;36399;51.444;-2.018;2022-09-03T00:28:05;99818.81;;;13.94;100.00
43436;BME280;36399;51.444;-2.018;2022-09-03T00:30:34;99823.25;;;13.90;100.00
43436;BME280;36399;51.444;-2.018;2022-09-03T00:33:04;99815.44;;;13.83;100.00
43436;BME280;36399;51.444;-2.018;2022-09-03T00:36:02;99808.50;;;13.73;100.00
43436;BME280;36399;51.444;-2.018;2022-09-03T00:38:29;99803.28;;;13.68;100.00
43436;BME280;36399;51.444;-2.018;2022-09-03T00:41:01;99799.75;;;13.69;100.00
43436;BME280;36399;51.444;-2.018;2022-09-03T00:52:17;99789.53;;;13.34;100.00
43436;BME280;36399;51.444;-2.018;2022-09-03T01:00:19;99784.53;;;13.02;100.00
43436;BME280;36399;51.444;-2.018;2022-09-03T01:13:29;99756.28;;;13.16;100.00
43436;BME280;36399;51.444;-2.018;2022-09-03T01:16:52;99758.06;;;13.19;100.00
43436;BME280;36399;51.444;-2.018;2022-09-03T01:30:16;99746.56;;;13.24;100.00
43436;BME280;36399;51.444;-2.018;2022-09-03T01:32:53;99742.09;;;13.34;100.00
43436;BME280;36399;51.444;-2.018;2022-09-03T01:35:42;99740.41;;;13.27;100.00
43436;BME280;36399;51.444;-2.018;2022-09-03T01:41:17;99728.09;;;13.27;100.00
43436;BME280;36399;51.444;-2.018;2022-09-03T01:46:42;99726.50;;;13.08;100.00
43436;BME280;36399;51.444;-2.018;2022-09-03T01:49:41;99727.34;;;13.10;100.00
43436;BME280;36399;51.444;-2.018;2022-09-03T01:52:18;99738.78;;;13.11;100.00
43436;BME280;36399;51.444;-2.018;2022-09-03T02:00:17;99731.91;;;12.88;100.00
43436;BME280;36399;51.444;-2.018;2022-09-03T02:02:50;99736.41;;;12.76;100.00
43436;BME280;36399;51.444;-2.018;2022-09-03T02:05:19;99740.00;;;12.66;100.00
43436;BME280;36399;51.444;-2.018;2022-09-03T02:10:28;99738.38;;;12.49;100.00
43436;BME280;36399;51.444;-2.018;2022-09-03T02:13:18;99738.41;;;12.40;100.00
43436;BME280;36399;51.444;-2.018;2022-09-03T02:15:47;99741.91;;;12.39;100.00
43436;BME280;36399;51.444;-2.018;2022-09-03T02:18:28;99736.66;;;12.39;100.00
43436;BME280;36399;51.444;-2.018;2022-09-03T02:20:56;99740.16;;;12.38;100.00
43436;BME280;36399;51.444;-2.018;2022-09-03T02:23:23;99733.09;;;12.49;100.00
43436;BME280;36399;51.444;-2.018;2022-09-03T02:25:54;99732.16;;;12.59;100.00
43436;BME280;36399;51.444;-2.018;2022-09-03T02:28:20;99718.94;;;12.66;100.00
43436;BME280;36399;51.444;-2.018;2022-09-03T02:30:47;99716.28;;;12.67;100.00
43436;BME280;36399;51.444;-2.018;2022-09-03T02:33:14;99712.69;;;12.79;100.00
43436;BME280;36399;51.444;-2.018;2022-09-03T02:35:41;99718.78;;;12.84;100.00
43436;BME280;36399;51.444;-2.018;2022-09-03T02:38:14;99717.91;;;12.85;100.00
43436;BME280;36399;51.444;-2.018;2022-09-03T02:40:41;99713.44;;;12.93;100.00
43436;BME280;36399;51.444;-2.018;2022-09-03T02:43:12;99708.22;;;12.88;100.00
43436;BME280;36399;51.444;-2.018;2022-09-03T02:45:45;99706.41;;;12.92;100.00
43436;BME280;36399;51.444;-2.018;2022-09-03T02:48:13;99710.81;;;12.91;100.00
43436;BME280;36399;51.444;-2.018;2022-09-03T02:50:42;99709.94;;;12.91;100.00
43436;BME280;36399;51.444;-2.018;2022-09-03T02:53:09;99716.13;;;12.85;100.00
43436;BME280;36399;51.444;-2.018;2022-09-03T02:55:35;99704.78;;;12.79;100.00
43436;BME280;36399;51.444;-2.018;2022-09-03T02:58:00;99711.81;;;12.77;100.00
43436;BME280;36399;51.444;-2.018;2022-09-03T03:00:26;99704.88;;;12.67;100.00
43436;BME280;36399;51.444;-2.018;2022-09-03T03:02:55;99704.97;;;12.54;100.00
43436;BME280;36399;51.444;-2.018;2022-09-03T03:05:26;99706.72;;;12.55;100.00
43436;BME280;36399;51.444;-2.018;2022-09-03T03:07:53;99706.78;;;12.51;100.00
43436;BME280;36399;51.444;-2.018;2022-09-03T03:10:20;99706.78;;;12.43;100.00
43436;BME280;36399;51.444;-2.018;2022-09-03T03:12:46;99707.69;;;12.39;100.00
43436;BME280;36399;51.444;-2.018;2022-09-03T03:15:13;99711.19;;;12.40;100.00
43436;BME280;36399;51.444;-2.018;2022-09-03T03:17:40;99701.59;;;12.34;100.00
43436;BME280;36399;51.444;-2.018;2022-09-03T03:20:06;99703.38;;;12.29;100.00
43436;BME280;36399;51.444;-2.018;2022-09-03T03:22:33;99692.88;;;12.26;100.00
43436;BME280;36399;51.444;-2.018;2022-09-03T03:24:58;99695.50;;;12.26;100.00
43436;BME280;36399;51.444;-2.018;2022-09-03T03:27:25;99699.00;;;12.28;100.00
43436;BME280;36399;51.444;-2.018;2022-09-03T03:29:52;99710.44;;;12.24;100.00
43436;BME280;36399;51.444;-2.018;2022-09-03T03:32:19;99699.91;;;12.24;100.00
43436;BME280;36399;51.444;-2.018;2022-09-03T03:34:45;99701.66;;;12.23;100.00
43436;BME280;36399;51.444;-2.018;2022-09-03T03:37:11;99701.66;;;12.25;100.00
43436;BME280;36399;51.444;-2.018;2022-09-03T03:39:37;99699.03;;;12.25;100.00
43436;BME280;36399;51.444;-2.018;2022-09-03T03:42:03;99701.69;;;12.19;100.00
43436;BME280;36399;51.444;-2.018;2022-09-03T03:44:29;99700.88;;;12.11;100.00
43436;BME280;36399;51.444;-2.018;2022-09-03T03:46:55;99702.66;;;12.03;100.00
43436;BME280;36399;51.444;-2.018;2022-09-03T03:49:21;99699.19;;;11.99;100.00
43436;BME280;36399;51.444;-2.018;2022-09-03T03:51:47;99704.44;;;12.00;100.00
43436;BME280;36399;51.444;-2.018;2022-09-03T03:54:13;99706.22;;;11.91;100.00
43436;BME280;36399;51.444;-2.018;2022-09-03T03:56:39;99706.25;;;11.83;100.00
43436;BME280;36399;51.444;-2.018;2022-09-03T03:59:05;99697.47;;;11.75;100.00
43436;BME280;36399;51.444;-2.018;2022-09-03T04:01:31;99701.91;;;11.68;100.00
43436;BME280;36399;51.444;-2.018;2022-09-03T04:03:58;99700.16;;;11.61;100.00
43436;BME280;36399;51.444;-2.018;2022-09-03T04:06:25;99697.53;;;11.67;100.00
43436;BME280;36399;51.444;-2.018;2022-09-03T04:08:51;99690.50;;;11.71;100.00
43436;BME280;36399;51.444;-2.018;2022-09-03T04:11:19;99700.13;;;11.69;100.00
43436;BME280;36399;51.444;-2.018;2022-09-03T04:13:46;99693.13;;;11.71;100.00
43436;BME280;36399;51.444;-2.018;2022-09-03T04:16:21;99693.13;;;11.68;100.00
43436;BME280;36399;51.444;-2.018;2022-09-03T04:18:48;99693.16;;;11.65;100.00
43436;BME280;36399;51.444;-2.018;2022-09-03T04:21:17;99687.91;;;11.59;100.00
43436;BME280;36399;51.444;-2.018;2022-09-03T04:23:45;99683.53;;;11.61;100.00
43436;BME280;36399;51.444;-2.018;2022-09-03T04:26:14;99689.66;;;11.60;100.00
43436;BME280;36399;51.444;-2.018;2022-09-03T04:28:40;99684.41;;;11.63;100.00
43436;BME280;36399;51.444;-2.018;2022-09-03T04:31:08;99683.53;;;11.58;100.00
43436;BME280;36399;51.444;-2.018;2022-09-03T04:33:35;99673.88;;;11.63;100.00
43436;BME280;36399;51.444;-2.018;2022-09-03T04:36:15;99680.91;;;11.56;100.00
43436;BME280;36399;51.444;-2.018;2022-09-03T04:39:00;99677.41;;;11.56;100.00
43436;BME280;36399;51.444;-2.018;2022-09-03T04:41:28;99680.06;;;11.54;100.00
43436;BME280;36399;51.444;-2.018;2022-09-03T04:43:56;99670.38;;;11.61;100.00
43436;BME280;36399;51.444;-2.018;2022-09-03T04:46:24;99670.41;;;11.58;100.00
43436;BME280;36399;51.444;-2.018;2022-09-03T04:48:52;99667.72;;;11.70;100.00
43436;BME280;36399;51.444;-2.018;2022-09-03T04:51:23;99676.50;;;11.64;100.00
43436;BME280;36399;51.444;-2.018;2022-09-03T04:53:58;99669.47;;;11.69;100.00
43436;BME280;36399;51.444;-2.018;2022-09-03T04:56:27;99672.06;;;11.77;100.00
43436;BME280;36399;51.444;-2.018;2022-09-03T04:58:55;99666.75;;;11.94;100.00
43436;BME280;36399;51.444;-2.018;2022-09-03T05:01:27;99675.41;;;12.16;100.00
43436;BME280;36399;51.444;-2.018;2022-09-03T05:03:54;99679.69;;;12.32;100.00
43436;BME280;36399;51.444;-2.018;2022-09-03T05:06:21;99666.41;;;12.47;100.00
43436;BME280;36399;51.444;-2.018;2022-09-03T05:08:48;99667.22;;;12.58;100.00
43436;BME280;36399;51.444;-2.018;2022-09-03T05:11:14;99667.09;;;12.72;100.00
43436;BME280;36399;51.444;-2.018;2022-09-03T05:13:41;99659.97;;;12.82;100.00
43436;BME280;36399;51.444;-2.018;2022-09-03T05:16:09;99654.56;;;12.97;100.00
43436;BME280;36399;51.444;-2.018;2022-09-03T05:18:35;99653.69;;;12.95;100.00
43436;BME280;36399;51.444;-2.018;2022-09-03T05:21:15;99655.41;;;12.99;100.00
43436;BME280;36399;51.444;-2.018;2022-09-03T05:23:45;99651.91;;;13.03;100.00
43436;BME280;36399;51.444;-2.018;2022-09-03T05:26:13;99659.69;;;13.14;100.00
43436;BME280;36399;51.444;-2.018;2022-09-03T05:28:41;99664.09;;;13.13;100.00
43436;BME280;36399;51.444;-2.018;2022-09-03T05:31:12;99660.56;;;13.14;100.00
43436;BME280;36399;51.444;-2.018;2022-09-03T05:33:44;99661.44;;;13.18;100.00
43436;BME280;36399;51.444;-2.018;2022-09-03T05:36:15;99660.50;;;13.23;100.00
43436;BME280;36399;51.444;-2.018;2022-09-03T05:38:41;99663.94;;;13.29;100.00
43436;BME280;36399;51.444;-2.018;2022-09-03T05:41:10;99675.31;;;13.34;100.00
43436;BME280;36399;51.444;-2.018;2022-09-03T05:43:36;99659.47;;;13.35;100.00
43436;BME280;36399;51.444;-2.018;2022-09-03T05:46:05;99663.03;;;13.31;100.00
43436;BME280;36399;51.444;-2.018;2022-09-03T05:48:36;99663.91;;;13.32;100.00
43436;BME280;36399;51.444;-2.018;2022-09-03T05:51:03;99660.25;;;13.45;100.00
43436;BME280;36399;51.444;-2.018;2022-09-03T05:53:33;99666.38;;;13.47;100.00
43436;BME280;36399;51.444;-2.018;2022-09-03T05:56:01;99668.19;;;13.40;100.00
43436;BME280;36399;51.444;-2.018;2022-09-03T05:58:36;99660.34;;;13.37;100.00
43436;BME280;36399;51.444;-2.018;2022-09-03T06:01:15;99665.53;;;13.43;100.00
43436;BME280;36399;51.444;-2.018;2022-09-03T06:03:43;99663.88;;;13.35;100.00
43436;BME280;36399;51.444;-2.018;2022-09-03T06:06:10;99662.09;;;13.37;100.00
43436;BME280;36399;51.444;-2.018;2022-09-03T06:08:39;99663.81;;;13.41;100.00
43436;BME280;36399;51.444;-2.018;2022-09-03T06:11:06;99667.38;;;13.37;100.00
43436;BME280;36399;51.444;-2.018;2022-09-03T06:13:33;99669.06;;;13.41;100.00
43436;BME280;36399;51.444;-2.018;2022-09-03T06:16:01;99669.06;;;13.41;100.00
43436;BME280;36399;51.444;-2.018;2022-09-03T06:18:29;99672.56;;;13.43;100.00
43436;BME280;36399;51.444;-2.018;2022-09-03T06:20:59;99671.66;;;13.45;100.00
43436;BME280;36399;51.444;-2.018;2022-09-03T06:23:27;99676.03;;;13.48;100.00
43436;BME280;36399;51.444;-2.018;2022-09-03T06:26:05;99676.00;;;13.51;100.00
43436;BME280;36399;51.444;-2.018;2022-09-03T06:28:36;99670.72;;;13.54;100.00
43436;BME280;36399;51.444;-2.018;2022-09-03T06:31:05;99665.31;;;13.65;100.00
43436;BME280;36399;51.444;-2.018;2022-09-03T06:33:32;99666.94;;;13.73;100.00
43436;BME280;36399;51.444;-2.018;2022-09-03T06:36:00;99672.06;;;13.85;100.00
43436;BME280;36399;51.444;-2.018;2022-09-03T06:38:29;99671.97;;;13.92;100.00
43436;BME280;36399;51.444;-2.018;2022-09-03T06:40:58;99678.78;;;14.11;100.00
43436;BME280;36399;51.444;-2.018;2022-09-03T06:43:31;99678.69;;;14.17;100.00
43436;BME280;36399;51.444;-2.018;2022-09-03T06:48:30;99693.22;;;14.47;100.00
43436;BME280;36399;51.444;-2.018;2022-09-03T06:51:07;99687.03;;;14.48;100.00
43436;BME280;36399;51.444;-2.018;2022-09-03T06:53:36;99693.94;;;14.57;100.00
43436;BME280;36399;51.444;-2.018;2022-09-03T06:56:07;99701.53;;;14.79;100.00
43436;BME280;36399;51.444;-2.018;2022-09-03T06:58:37;99689.88;;;14.91;100.00
43436;BME280;36399;51.444;-2.018;2022-09-03T07:01:11;99693.09;;;15.10;100.00
43436;BME280;36399;51.444;-2.018;2022-09-03T07:03:39;99689.22;;;15.28;100.00
43436;BME280;36399;51.444;-2.018;2022-09-03T07:06:08;99690.44;;;15.56;100.00
43436;BME280;36399;51.444;-2.018;2022-09-03T07:08:35;99693.75;;;15.69;100.00
43436;BME280;36399;51.444;-2.018;2022-09-03T07:11:06;99692.28;;;15.97;100.00
43436;BME280;36399;51.444;-2.018;2022-09-03T07:13:37;99686.00;;;16.01;100.00
43436;BME280;36399;51.444;-2.018;2022-09-03T07:16:08;99683.56;;;16.32;100.00
43436;BME280;36399;51.444;-2.018;2022-09-03T07:18:35;99699.25;;;16.41;100.00
43436;BME280;36399;51.444;-2.018;2022-09-03T07:21:06;99714.47;;;16.72;100.00
43436;BME280;36399;51.444;-2.018;2022-09-03T07:23:33;99719.69;;;16.75;100.00
43436;BME280;36399;51.444;-2.018;2022-09-03T07:26:02;99740.97;;;17.08;100.00
43436;BME280;36399;51.444;-2.018;2022-09-03T07:28:29;99751.84;;;17.32;100.00
43436;BME280;36399;51.444;-2.018;2022-09-03T07:31:14;99756.75;;;17.48;100.00
43436;BME280;36399;51.444;-2.018;2022-09-03T07:33:41;99768.28;;;17.81;100.00
43436;BME280;36399;51.444;-2.018;2022-09-03T07:36:09;99764.72;;;17.82;100.00
43436;BME280;36399;51.444;-2.018;2022-09-03T07:38:36;99775.63;;;18.02;100.00
43436;BME280;36399;51.444;-2.018;2022-09-03T07:41:07;99782.09;;;18.24;100.00
43436;BME280;36399;51.444;-2.018;2022-09-03T07:43:44;99780.00;;;18.36;100.00
43436;BME280;36399;51.444;-2.018;2022-09-03T07:46:15;99781.88;;;18.60;100.00
43436;BME280;36399;51.444;-2.018;2022-09-03T07:48:45;99783.38;;;18.41;100.00
43436;BME280;36399;51.444;-2.018;2022-09-03T07:51:11;99788.59;;;18.44;100.00
43436;BME280;36399;51.444;-2.018;2022-09-03T07:53:37;99794.09;;;18.67;100.00
43436;BME280;36399;51.444;-2.018;2022-09-03T07:56:05;99799.84;;;18.83;100.00
43436;BME280;36399;51.444;-2.018;2022-09-03T07:58:32;99803.66;;;18.74;100.00
43436;BME280;36399;51.444;-2.018;2022-09-03T08:01:06;99805.06;;;18.86;100.00
43436;BME280;36399;51.444;-2.018;2022-09-03T08:03:37;99816.34;;;18.94;100.00
43436;BME280;36399;51.444;-2.018;2022-09-03T08:06:06;99814.63;;;18.91;100.00
43436;BME280;36399;51.444;-2.018;2022-09-03T08:08:33;99812.09;;;18.88;100.00
43436;BME280;36399;51.444;-2.018;2022-09-03T08:11:14;99814.84;;;18.85;100.00
43436;BME280;36399;51.444;-2.018;2022-09-03T08:13:43;99816.38;;;18.92;100.00
43436;BME280;36399;51.444;-2.018;2022-09-03T08:16:13;99820.94;;;18.89;100.00
43436;BME280;36399;51.444;-2.018;2022-09-03T08:18:40;99820.53;;;19.01;100.00
43436;BME280;36399;51.444;-2.018;2022-09-03T08:21:14;99823.16;;;19.31;100.00
43436;BME280;36399;51.444;-2.018;2022-09-03T08:23:50;99824.84;;;19.60;100.00
43436;BME280;36399;51.444;-2.018;2022-09-03T08:26:17;99829.75;;;19.72;100.00
43436;BME280;36399;51.444;-2.018;2022-09-03T08:28:44;99823.09;;;19.59;100.00
43436;BME280;36399;51.444;-2.018;2022-09-03T08:31:19;99819.63;;;19.57;100.00
43436;BME280;36399;51.444;-2.018;2022-09-03T08:33:47;99826.22;;;19.45;100.00
43436;BME280;36399;51.444;-2.018;2022-09-03T08:36:24;99827.72;;;19.80;100.00
43436;BME280;36399;51.444;-2.018;2022-09-03T08:38:51;99821.34;;;20.09;100.00
43436;BME280;36399;51.444;-2.018;2022-09-03T08:41:31;99818.97;;;20.25;100.00
43436;BME280;36399;51.444;-2.018;2022-09-03T08:47:11;99836.09;;;19.94;100.00
43436;BME280;36399;51.444;-2.018;2022-09-03T08:49:59;99831.50;;;20.23;100.00
43436;BME280;36399;51.444;-2.018;2022-09-03T08:52:49;99831.56;;;20.46;100.00
43436;BME280;36399;51.444;-2.018;2022-09-03T08:57:52;99840.66;;;20.40;100.00
43436;BME280;36399;51.444;-2.018;2022-09-03T09:00:19;99848.09;;;20.31;100.00
43436;BME280;36399;51.444;-2.018;2022-09-03T09:03:14;99850.97;;;20.25;100.00
43436;BME280;36399;51.444;-2.018;2022-09-03T09:16:46;99855.16;;;20.32;100.00
43436;BME280;36399;51.444;-2.018;2022-09-03T09:24:49;99869.13;;;20.13;100.00
43436;BME280;36399;51.444;-2.018;2022-09-03T09:27:18;99864.28;;;20.25;100.00
43436;BME280;36399;51.444;-2.018;2022-09-03T09:29:49;99857.84;;;20.32;100.00
43436;BME280;36399;51.444;-2.018;2022-09-03T09:32:16;99865.28;;;20.47;100.00
43436;BME280;36399;51.444;-2.018;2022-09-03T09:34:44;99865.63;;;21.08;100.00
43436;BME280;36399;51.444;-2.018;2022-09-03T09:37:12;99868.50;;;21.25;100.00
43436;BME280;36399;51.444;-2.018;2022-09-03T09:39:40;99870.13;;;21.29;100.00
43436;BME280;36399;51.444;-2.018;2022-09-03T09:42:09;99869.56;;;21.65;100.00
43436;BME280;36399;51.444;-2.018;2022-09-03T09:44:37;99852.84;;;21.60;100.00
43436;BME280;36399;51.444;-2.018;2022-09-03T09:47:12;99865.94;;;21.22;100.00
43436;BME280;36399;51.444;-2.018;2022-09-03T09:52:13;99867.13;;;21.59;100.00
43436;BME280;36399;51.444;-2.018;2022-09-03T09:54:41;99865.91;;;21.24;100.00
43436;BME280;36399;51.444;-2.018;2022-09-03T09:57:14;99873.66;;;21.52;100.00
43436;BME280;36399;51.444;-2.018;2022-09-03T09:59:43;99863.06;;;21.05;100.00
43436;BME280;36399;51.444;-2.018;2022-09-03T10:04:40;99870.63;;;21.39;100.00
43436;BME280;36399;51.444;-2.018;2022-09-03T10:07:29;99874.81;;;21.88;100.00
43436;BME280;36399;51.444;-2.018;2022-09-03T10:12:41;99871.81;;;21.96;100.00
43436;BME280;36399;51.444;-2.018;2022-09-03T10:20:39;99859.94;;;22.62;100.00
43436;BME280;36399;51.444;-2.018;2022-09-03T10:23:22;99863.50;;;23.74;100.00
43436;BME280;36399;51.444;-2.018;2022-09-03T10:28:25;99864.28;;;23.59;100.00
43436;BME280;36399;51.444;-2.018;2022-09-03T10:33:34;99849.75;;;22.71;100.00
43436;BME280;36399;51.444;-2.018;2022-09-03T10:39:03;99854.94;;;23.49;100.00
43436;BME280;36399;51.444;-2.018;2022-09-03T10:42:02;99856.63;;;23.69;100.00
43436;BME280;36399;51.444;-2.018;2022-09-03T10:50:26;99862.88;;;24.04;100.00
43436;BME280;36399;51.444;-2.018;2022-09-03T10:56:00;99858.00;;;23.95;100.00
43436;BME280;36399;51.444;-2.018;2022-09-03T11:01:02;99842.34;;;24.37;100.00
43436;BME280;36399;51.444;-2.018;2022-09-03T11:03:47;99851.66;;;24.47;100.00
43436;BME280;36399;51.444;-2.018;2022-09-03T11:06:17;99848.81;;;25.31;100.00
43436;BME280;36399;51.444;-2.018;2022-09-03T11:11:31;99861.16;;;24.86;100.00
43436;BME280;36399;51.444;-2.018;2022-09-03T11:14:06;99848.41;;;24.41;100.00
43436;BME280;36399;51.444;-2.018;2022-09-03T11:16:37;99852.56;;;24.64;100.00
43436;BME280;36399;51.444;-2.018;2022-09-03T11:19:16;99847.41;;;23.91;100.00
43436;BME280;36399;51.444;-2.018;2022-09-03T11:21:42;99854.34;;;23.06;100.00
43436;BME280;36399;51.444;-2.018;2022-09-03T11:24:16;99844.59;;;22.66;100.00
43436;BME280;36399;51.444;-2.018;2022-09-03T11:26:44;99851.84;;;22.64;100.00
43436;BME280;36399;51.444;-2.018;2022-09-03T11:29:24;99851.84;;;22.64;100.00
43436;BME280;36399;51.444;-2.018;2022-09-03T11:32:04;99854.72;;;22.59;100.00
43436;BME280;36399;51.444;-2.018;2022-09-03T11:34:51;99857.06;;;23.23;100.00
43436;BME280;36399;51.444;-2.018;2022-09-03T11:42:26;99855.78;;;23.68;100.00
43436;BME280;36399;51.444;-2.018;2022-09-03T11:44:59;99847.09;;;23.08;100.00
43436;BME280;36399;51.444;-2.018;2022-09-03T11:47:40;99857.25;;;23.38;100.00
43436;BME280;36399;51.444;-2.018;2022-09-03T11:50:26;99856.88;;;23.09;100.00
43436;BME280;36399;51.444;-2.018;2022-09-03T11:53:06;99848.56;;;22.96;100.00
43436;BME280;36399;51.444;-2.018;2022-09-03T11:55:51;99860.00;;;22.42;100.00
43436;BME280;36399;51.444;-2.018;2022-09-03T11:58:30;99860.38;;;22.33;100.00
43436;BME280;36399;51.444;-2.018;2022-09-03T12:01:00;99851.38;;;22.15;100.00
43436;BME280;36399;51.444;-2.018;2022-09-03T12:03:46;99850.91;;;22.06;100.00
43436;BME280;36399;51.444;-2.018;2022-09-03T12:10:00;99852.47;;;22.50;100.00
43436;BME280;36399;51.444;-2.018;2022-09-03T12:14:45;99850.38;;;22.38;100.00
43436;BME280;36399;51.444;-2.018;2022-09-03T12:17:33;99847.06;;;22.31;100.00
43436;BME280;36399;51.444;-2.018;2022-09-03T12:20:11;99858.63;;;22.32;100.00
43436;BME280;36399;51.444;-2.018;2022-09-03T12:22:37;99858.78;;;22.29;100.00
43436;BME280;36399;51.444;-2.018;2022-09-03T12:25:14;99859.94;;;22.62;100.00
43436;BME280;36399;51.444;-2.018;2022-09-03T12:27:43;99860.91;;;22.80;100.00
43436;BME280;36399;51.444;-2.018;2022-09-03T12:30:20;99875.53;;;23.11;100.00
43436;BME280;36399;51.444;-2.018;2022-09-03T12:32:47;99862.38;;;23.06;100.00
43436;BME280;36399;51.444;-2.018;2022-09-03T12:35:15;99861.81;;;23.36;100.00
43436;BME280;36399;51.444;-2.018;2022-09-03T12:37:43;99861.00;;;22.97;100.00
43436;BME280;36399;51.444;-2.018;2022-09-03T12:40:23;99869.06;;;23.34;100.00
43436;BME280;36399;51.444;-2.018;2022-09-03T12:42:51;99866.22;;;23.37;100.00
43436;BME280;36399;51.444;-2.018;2022-09-03T12:45:20;99866.22;;;23.37;100.00
43436;BME280;36399;51.444;-2.018;2022-09-03T12:47:46;99867.38;;;23.50;100.00
43436;BME280;36399;51.444;-2.018;2022-09-03T12:50:18;99874.69;;;23.65;100.00
43436;BME280;36399;51.444;-2.018;2022-09-03T12:52:47;99878.88;;;23.52;100.00
43436;BME280;36399;51.444;-2.018;2022-09-03T12:55:47;99873.22;;;23.03;100.00
43436;BME280;36399;51.444;-2.018;2022-09-03T12:58:22;99865.50;;;22.77;100.00
43436;BME280;36399;51.444;-2.018;2022-09-03T13:00:54;99877.88;;;22.60;100.00
43436;BME280;36399;51.444;-2.018;2022-09-03T13:05:57;99873.72;;;21.50;100.00
43436;BME280;36399;51.444;-2.018;2022-09-03T13:08:27;99883.78;;;20.98;100.00
43436;BME280;36399;51.444;-2.018;2022-09-03T13:10:57;99877.59;;;20.74;100.00
43436;BME280;36399;51.444;-2.018;2022-09-03T13:13:26;99890.25;;;20.20;100.00
43436;BME280;36399;51.444;-2.018;2022-09-03T13:21:20;99887.75;;;18.46;100.00
43436;BME280;36399;51.444;-2.018;2022-09-03T13:30:18;99886.19;;;18.06;100.00
43436;BME280;36399;51.444;-2.018;2022-09-03T13:32:52;99889.13;;;18.29;100.00
43436;BME280;36399;51.444;-2.018;2022-09-03T13:38:06;99876.44;;;19.00;100.00
43436;BME280;36399;51.444;-2.018;2022-09-03T13:40:40;99888.34;;;19.72;100.00
43436;BME280;36399;51.444;-2.018;2022-09-03T13:43:25;99890.75;;;20.79;100.00
43436;BME280;36399;51.444;-2.018;2022-09-03T13:46:00;99875.69;;;22.29;100.00
43436;BME280;36399;51.444;-2.018;2022-09-03T13:48:38;99883.38;;;22.96;100.00
43436;BME280;36399;51.444;-2.018;2022-09-03T13:51:44;99887.78;;;23.52;100.00
43436;BME280;36399;51.444;-2.018;2022-09-03T13:54:28;99879.84;;;23.51;100.00
43436;BME280;36399;51.444;-2.018;2022-09-03T13:56:57;99883.03;;;23.76;100.00
43436;BME280;36399;51.444;-2.018;2022-09-03T14:02:44;99880.78;;;23.50;100.00
43436;BME280;36399;51.444;-2.018;2022-09-03T14:08:22;99865.53;;;25.36;100.00
43436;BME280;36399;51.444;-2.018;2022-09-03T14:10:57;99883.69;;;24.50;100.00
43436;BME280;36399;51.444;-2.018;2022-09-03T14:16:46;99891.63;;;22.92;100.00
43436;BME280;36399;51.444;-2.018;2022-09-03T14:19:31;99888.00;;;22.93;100.00
43436;BME280;36399;51.444;-2.018;2022-09-03T14:22:15;99889.00;;;22.51;100.00
43436;BME280;36399;51.444;-2.018;2022-09-03T14:24:51;99885.13;;;22.38;100.00
43436;BME280;36399;51.444;-2.018;2022-09-03T14:27:25;99890.94;;;22.07;100.00
43436;BME280;36399;51.444;-2.018;2022-09-03T14:30:03;99899.28;;;22.20;100.00
43436;BME280;36399;51.444;-2.018;2022-09-03T14:32:36;99900.38;;;22.16;100.00
43436;BME280;36399;51.444;-2.018;2022-09-03T14:41:05;99904.09;;;21.26;100.00
43436;BME280;36399;51.444;-2.018;2022-09-03T14:58:04;99911.59;;;22.44;100.00
43436;BME280;36399;51.444;-2.018;2022-09-03T15:06:05;99908.22;;;24.08;100.00
43436;BME280;36399;51.444;-2.018;2022-09-03T15:11:22;99900.84;;;26.21;100.00
43436;BME280;36399;51.444;-2.018;2022-09-03T15:16:35;99902.44;;;23.64;100.00
43436;BME280;36399;51.444;-2.018;2022-09-03T15:36:51;99929.91;;;22.13;100.00
43436;BME280;36399;51.444;-2.018;2022-09-03T15:39:27;99921.84;;;21.92;100.00
43436;BME280;36399;51.444;-2.018;2022-09-03T15:41:58;99933.09;;;21.79;100.00
43436;BME280;36399;51.444;-2.018;2022-09-03T15:44:41;99935.53;;;21.63;100.00
43436;BME280;36399;51.444;-2.018;2022-09-03T15:55:43;99935.47;;;20.96;100.00
43436;BME280;36399;51.444;-2.018;2022-09-03T15:58:30;99940.91;;;20.69;100.00
43436;BME280;36399;51.444;-2.018;2022-09-03T16:01:02;99954.47;;;20.63;100.00
43436;BME280;36399;51.444;-2.018;2022-09-03T16:06:22;99955.69;;;20.55;100.00
43436;BME280;36399;51.444;-2.018;2022-09-03T16:14:04;99978.22;;;20.46;100.00
43436;BME280;36399;51.444;-2.018;2022-09-03T16:16:53;99968.88;;;20.33;100.00
43436;BME280;36399;51.444;-2.018;2022-09-03T16:19:45;99979.34;;;20.64;100.00
43436;BME280;36399;51.444;-2.018;2022-09-03T16:25:02;99984.53;;;20.43;100.00
43436;BME280;36399;51.444;-2.018;2022-09-03T16:27:37;99983.34;;;20.24;100.00
43436;BME280;36399;51.444;-2.018;2022-09-03T16:30:13;99980.34;;;20.08;100.00
43436;BME280;36399;51.444;-2.018;2022-09-03T16:35:30;99988.00;;;19.93;100.00
43436;BME280;36399;51.444;-2.018;2022-09-03T16:44:25;99994.28;;;19.90;100.00
43436;BME280;36399;51.444;-2.018;2022-09-03T16:47:06;99992.84;;;19.80;100.00
43436;BME280;36399;51.444;-2.018;2022-09-03T16:53:06;99984.31;;;19.69;100.00
43436;BME280;36399;51.444;-2.018;2022-09-03T17:01:37;99990.59;;;19.66;100.00
43436;BME280;36399;51.444;-2.018;2022-09-03T17:07:10;99989.75;;;19.36;100.00